Terminal Aerodrome Forecast
Issued by NWS Sterling, VA

Current Version | Previous Version | Text Only | Print | Product List | Glossary Off
Versions: 1 2 3 4 5 6 7 8 9 10 11 12 13 14

580
FTUS41 KLWX 020523
TAFMRB
TAF
KMRB 020523Z 0206/0306 27010KT P6SM OVC045
     FM021400 27010G20KT P6SM BKN045=

USA.gov is the U.S. government's official web portal to all federal, state and local government web resources and services.